createdAt,value
2023-04-14T00:00:37.111Z,30.13
2023-04-14T00:03:04.215Z,19.30
2023-04-14T00:05:32.327Z,18.50
2023-04-14T00:07:59.735Z,17.13
2023-04-14T00:10:26.903Z,19.92
2023-04-14T00:12:55.368Z,37.47
2023-04-14T00:15:22.411Z,46.70
2023-04-14T00:17:49.155Z,48.65
2023-04-14T00:20:16.092Z,40.28
2023-04-14T00:22:42.756Z,32.58
2023-04-14T00:25:09.946Z,38.63
2023-04-14T00:27:36.717Z,39.28
2023-04-14T00:30:03.725Z,42.22
2023-04-14T00:32:30.441Z,32.03
2023-04-14T00:34:57.176Z,29.08
2023-04-14T00:37:24.332Z,34.35
2023-04-14T00:39:51.154Z,32.58
2023-04-14T00:42:17.939Z,35.15
2023-04-14T00:44:44.607Z,29.42
2023-04-14T00:47:11.458Z,26.25
2023-04-14T00:49:38.307Z,30.10
2023-04-14T00:52:05.752Z,27.33
2023-04-14T00:54:32.836Z,25.30
2023-04-14T00:56:59.709Z,33.08
2023-04-14T00:59:28.838Z,29.30
2023-04-14T01:01:57.045Z,32.97
2023-04-14T01:04:24.812Z,30.40
2023-04-14T01:06:54.562Z,21.77
2023-04-14T01:09:21.303Z,23.83
2023-04-14T01:12:25.540Z,26.30
2023-04-14T01:15:08.199Z,17.65
2023-04-14T01:17:50.153Z,18.98
2023-04-14T01:20:25.816Z,14.73
2023-04-14T01:23:02.411Z,23.67
2023-04-14T01:25:37.918Z,19.80
2023-04-14T01:30:48.631Z,18.10
2023-04-14T01:33:18.885Z,15.98
2023-04-14T01:35:50.483Z,15.40
2023-04-14T01:38:25.980Z,14.27
2023-04-14T01:43:25.062Z,19.83
2023-04-14T01:45:53.388Z,13.55
2023-04-14T01:48:20.347Z,12.50
2023-04-14T01:50:47.545Z,15.63
2023-04-14T01:53:16.563Z,15.73
2023-04-14T01:55:44.317Z,18.88
2023-04-14T01:58:11.512Z,20.60
2023-04-14T02:00:39.825Z,20.92
2023-04-14T02:03:06.913Z,19.08
2023-04-14T02:05:35.547Z,14.57
2023-04-14T02:08:03.631Z,12.20
2023-04-14T02:10:30.852Z,12.73
2023-04-14T02:12:58.217Z,19.83
2023-04-14T02:15:26.292Z,19.65
2023-04-14T02:17:53.083Z,21.75
2023-04-14T02:20:21.315Z,20.55
2023-04-14T02:22:48.103Z,23.15
2023-04-14T02:25:14.872Z,25.88
2023-04-14T02:27:47.871Z,24.17
2023-04-14T02:30:27.777Z,26.15
2023-04-14T02:32:57.809Z,20.27
2023-04-14T02:35:26.957Z,22.85
2023-04-14T02:38:06.088Z,30.25
2023-04-14T02:40:36.349Z,35.70
2023-04-14T02:43:12.584Z,27.65
2023-04-14T02:45:40.879Z,37.20
2023-04-14T02:48:13.715Z,36.08
2023-04-14T02:50:43.971Z,39.47
2023-04-14T02:53:10.854Z,34.35
2023-04-14T02:55:38.190Z,31.13
2023-04-14T02:58:05.063Z,42.65
2023-04-14T03:00:33.212Z,31.70
2023-04-14T03:03:00.998Z,31.33
2023-04-14T03:05:28.254Z,32.05
2023-04-14T03:07:55.265Z,32.20
2023-04-14T03:10:23.534Z,15.82
2023-04-14T03:12:50.804Z,22.20
2023-04-14T03:15:18.673Z,26.85
2023-04-14T03:17:48.761Z,23.85
2023-04-14T03:20:20.149Z,26.40
2023-04-14T03:22:48.406Z,22.27
2023-04-14T03:25:16.031Z,29.85
2023-04-14T03:27:43.896Z,24.40
2023-04-14T03:30:12.597Z,24.40
2023-04-14T03:32:42.397Z,26.65
2023-04-14T03:35:09.861Z,30.75
2023-04-14T03:37:39.864Z,24.63
2023-04-14T03:40:08.720Z,19.23
2023-04-14T03:42:36.481Z,31.63
2023-04-14T03:45:04.032Z,18.35
2023-04-14T03:47:31.744Z,21.33
2023-04-14T03:50:01.376Z,27.75
2023-04-14T03:52:31.200Z,28.75
2023-04-14T03:55:01.679Z,26.08
2023-04-14T03:57:29.826Z,26.23
2023-04-14T03:59:57.401Z,24.45
2023-04-14T04:02:26.132Z,25.52
2023-04-14T04:04:54.531Z,28.88
2023-04-14T04:07:21.466Z,29.20
2023-04-14T04:09:48.776Z,37.72
2023-04-14T04:12:16.604Z,42.00
2023-04-14T04:14:43.290Z,34.90
2023-04-14T04:17:10.520Z,43.20
2023-04-14T04:19:37.398Z,31.63
2023-04-14T04:22:04.960Z,36.58
2023-04-14T04:24:37.992Z,27.45
2023-04-14T04:27:09.858Z,45.03
2023-04-14T04:29:41.404Z,40.38
2023-04-14T04:32:08.257Z,40.78
2023-04-14T04:34:35.453Z,53.38
2023-04-14T04:37:02.309Z,52.58
2023-04-14T04:39:29.900Z,39.72
2023-04-14T04:42:06.868Z,41.90
2023-04-14T04:44:34.913Z,38.47
2023-04-14T04:47:02.140Z,60.08
2023-04-14T04:49:29.020Z,54.03
2023-04-14T04:51:56.949Z,56.75
2023-04-14T04:54:23.954Z,46.20
2023-04-14T04:56:50.667Z,44.50
2023-04-14T04:59:17.508Z,40.45
2023-04-14T05:01:44.367Z,39.55
2023-04-14T05:04:11.965Z,36.50
2023-04-14T05:06:38.866Z,44.45
2023-04-14T05:09:06.082Z,48.20
2023-04-14T05:11:35.937Z,60.78
2023-04-14T05:14:03.059Z,53.70
2023-04-14T05:16:30.074Z,50.58
2023-04-14T05:18:56.877Z,69.10
2023-04-14T05:21:23.923Z,83.45
2023-04-14T05:23:50.618Z,66.63
2023-04-14T05:28:46.949Z,63.30
2023-04-14T05:31:13.708Z,109.78
2023-04-14T05:33:40.474Z,63.97
2023-04-14T05:36:07.521Z,60.53
2023-04-14T05:38:39.130Z,54.63
2023-04-14T05:41:07.174Z,58.15
2023-04-14T05:43:33.864Z,49.85
2023-04-14T05:46:01.742Z,38.63
2023-04-14T05:48:30.764Z,54.83
2023-04-14T05:50:58.342Z,42.05
2023-04-14T05:53:25.422Z,37.17
2023-04-14T05:55:52.573Z,33.10
2023-04-14T05:58:19.941Z,32.15
2023-04-14T06:00:46.857Z,26.35
2023-04-14T06:03:13.812Z,23.50
2023-04-14T06:05:40.803Z,18.05
2023-04-14T06:08:07.468Z,19.63
2023-04-14T06:10:35.650Z,27.27
2023-04-14T06:13:02.351Z,19.35
2023-04-14T06:15:29.837Z,18.77
2023-04-14T06:17:56.727Z,14.70
2023-04-14T06:20:23.618Z,20.40
2023-04-14T06:22:50.617Z,19.25
2023-04-14T06:25:17.386Z,15.02
2023-04-14T06:27:44.117Z,19.85
2023-04-14T06:30:11.034Z,17.33
2023-04-14T06:32:37.802Z,21.50
2023-04-14T06:35:05.166Z,18.08
2023-04-14T06:37:32.454Z,17.95
2023-04-14T06:39:59.222Z,17.85
2023-04-14T06:42:26.042Z,17.98
2023-04-14T06:44:52.772Z,15.68
2023-04-14T06:47:21.119Z,12.80
2023-04-14T06:49:47.927Z,16.67
2023-04-14T06:52:14.633Z,15.93
2023-04-14T06:54:42.350Z,11.07
2023-04-14T06:57:09.409Z,9.85
2023-04-14T06:59:36.786Z,16.23
2023-04-14T07:02:03.697Z,14.43
2023-04-14T07:04:30.703Z,13.15
2023-04-14T07:07:01.243Z,12.35
2023-04-14T07:09:28.884Z,12.75
2023-04-14T07:11:57.207Z,12.35
2023-04-14T07:14:24.443Z,13.82
2023-04-14T07:16:54.189Z,13.73
2023-04-14T07:19:20.982Z,16.05
2023-04-14T07:21:48.082Z,9.35
2023-04-14T07:24:15.664Z,10.32
2023-04-14T07:26:44.284Z,11.90
2023-04-14T07:29:11.122Z,10.73
2023-04-14T07:31:38.980Z,14.52
2023-04-14T07:34:06.366Z,14.13
2023-04-14T07:36:33.335Z,12.93
2023-04-14T07:39:00.377Z,12.40
2023-04-14T07:41:28.050Z,13.15
2023-04-14T07:43:59.681Z,12.40
2023-04-14T07:46:26.628Z,14.55
2023-04-14T07:48:53.422Z,10.60
2023-04-14T07:51:20.766Z,13.20
2023-04-14T07:53:47.480Z,12.52
2023-04-14T07:56:15.588Z,12.55
2023-04-14T07:58:42.232Z,10.07
2023-04-14T08:01:09.073Z,12.25
2023-04-14T08:03:37.488Z,13.13
2023-04-14T08:06:06.002Z,14.68
2023-04-14T08:08:33.488Z,14.45
2023-04-14T08:11:00.422Z,15.27
2023-04-14T08:13:27.089Z,13.38
2023-04-14T08:15:53.806Z,10.93
2023-04-14T08:18:20.653Z,14.23
2023-04-14T08:20:47.314Z,14.82
2023-04-14T08:23:14.015Z,10.80
2023-04-14T08:25:40.899Z,16.17
2023-04-14T08:28:07.577Z,11.10
2023-04-14T08:30:34.360Z,13.05
2023-04-14T08:33:01.094Z,10.65
2023-04-14T08:35:38.625Z,14.10
2023-04-14T08:38:08.148Z,13.57
2023-04-14T08:40:40.345Z,13.60
2023-04-14T08:43:07.379Z,10.40
2023-04-14T08:45:34.566Z,11.40
2023-04-14T08:48:02.802Z,13.35
2023-04-14T08:50:45.979Z,11.23
2023-04-14T08:53:13.538Z,12.50
2023-04-14T08:55:41.845Z,15.35
2023-04-14T08:58:10.800Z,12.68
2023-04-14T09:00:38.954Z,11.10
2023-04-14T09:03:06.319Z,14.75
2023-04-14T09:05:33.327Z,11.32
2023-04-14T09:08:00.935Z,14.13
2023-04-14T09:10:30.294Z,15.13
2023-04-14T09:12:57.630Z,12.10
2023-04-14T09:15:27.413Z,13.13
2023-04-14T09:17:55.235Z,10.73
2023-04-14T09:20:37.907Z,12.65
2023-04-14T09:23:09.670Z,11.70
2023-04-14T09:25:38.488Z,9.68
2023-04-14T09:28:05.157Z,11.63
2023-04-14T09:30:32.319Z,12.18
2023-04-14T09:33:04.824Z,11.40
2023-04-14T09:35:46.691Z,10.02
2023-04-14T09:38:13.377Z,10.90
2023-04-14T09:40:42.983Z,11.65
2023-04-14T09:43:21.156Z,11.27
2023-04-14T09:45:47.809Z,11.63
2023-04-14T09:48:14.623Z,10.88
2023-04-14T09:51:10.744Z,14.45
2023-04-14T09:53:38.576Z,12.52
2023-04-14T09:56:07.322Z,13.38
2023-04-14T09:58:42.099Z,12.02
2023-04-14T10:01:14.453Z,11.93
2023-04-14T10:03:46.489Z,12.50
2023-04-14T10:06:20.353Z,12.70
2023-04-14T10:08:49.063Z,12.00
2023-04-14T10:11:26.412Z,14.77
2023-04-14T10:13:55.771Z,13.65
2023-04-14T10:16:23.442Z,16.85
2023-04-14T10:18:51.031Z,13.30
2023-04-14T10:21:17.824Z,16.17
2023-04-14T10:23:44.761Z,13.73
2023-04-14T10:26:12.786Z,16.20
2023-04-14T10:28:45.573Z,17.52
2023-04-14T10:31:20.308Z,16.02
2023-04-14T10:33:47.320Z,16.42
2023-04-14T10:36:23.856Z,13.32
2023-04-14T10:38:50.595Z,12.85
2023-04-14T10:41:17.203Z,17.92
2023-04-14T10:43:43.973Z,15.90
2023-04-14T10:46:11.253Z,16.13
2023-04-14T10:48:39.558Z,14.15
2023-04-14T10:51:08.463Z,16.15
2023-04-14T10:53:46.543Z,14.45
2023-04-14T10:56:13.617Z,13.80
2023-04-14T10:58:40.299Z,14.45
2023-04-14T11:01:24.319Z,14.93
2023-04-14T11:03:51.541Z,18.05
2023-04-14T11:06:52.971Z,14.60
2023-04-14T11:09:32.164Z,15.80
2023-04-14T11:12:08.731Z,13.80
2023-04-14T11:14:36.149Z,15.38
2023-04-14T11:17:05.200Z,12.48
2023-04-14T11:19:32.524Z,15.73
2023-04-14T11:21:59.267Z,15.75
2023-04-14T11:24:26.768Z,17.17
2023-04-14T11:26:55.283Z,14.75
2023-04-14T11:29:22.929Z,12.68
2023-04-14T11:32:06.718Z,21.85
2023-04-14T11:34:34.487Z,16.58
2023-04-14T11:37:04.872Z,15.95
2023-04-14T11:39:32.338Z,15.57
2023-04-14T11:42:02.047Z,22.98
2023-04-14T11:44:28.899Z,15.00
2023-04-14T11:46:55.598Z,16.92
2023-04-14T11:49:36.047Z,14.93
2023-04-14T11:52:07.773Z,14.02
2023-04-14T11:54:36.070Z,14.80
2023-04-14T11:57:03.079Z,14.45
2023-04-14T11:59:29.762Z,14.30
2023-04-14T12:01:58.236Z,15.27
2023-04-14T12:04:24.980Z,16.08
2023-04-14T12:06:53.219Z,17.58
2023-04-14T12:09:21.701Z,15.55
2023-04-14T12:11:55.778Z,15.82
2023-04-14T12:14:22.658Z,15.25
2023-04-14T12:16:49.317Z,16.95
2023-04-14T12:19:15.961Z,16.55
2023-04-14T12:21:42.664Z,12.70
2023-04-14T12:24:09.293Z,16.67
2023-04-14T12:26:36.680Z,19.83
2023-04-14T12:29:04.351Z,19.75
2023-04-14T12:31:31.523Z,15.20
2023-04-14T12:34:04.337Z,15.75
2023-04-14T12:36:48.025Z,17.70
2023-04-14T12:39:16.656Z,12.98
2023-04-14T12:41:43.442Z,14.25
2023-04-14T12:44:18.544Z,14.93
2023-04-14T12:46:49.990Z,14.50
2023-04-14T12:49:39.066Z,17.33
2023-04-14T12:52:08.327Z,14.23
2023-04-14T12:54:50.137Z,16.02
2023-04-14T12:57:16.872Z,13.90
2023-04-14T12:59:43.758Z,15.38
2023-04-14T13:02:10.550Z,15.57
2023-04-14T13:04:37.280Z,14.55
2023-04-14T13:07:04.162Z,24.45
2023-04-14T13:09:34.269Z,80.53
2023-04-14T13:12:01.350Z,23.63
2023-04-14T13:14:27.959Z,21.40
2023-04-14T13:16:56.025Z,21.05
2023-04-14T13:19:22.877Z,18.98
2023-04-14T13:21:50.420Z,21.40
2023-04-14T13:24:17.082Z,14.85
2023-04-14T13:26:43.708Z,14.43
2023-04-14T13:29:10.752Z,21.08
2023-04-14T13:31:37.592Z,16.38
2023-04-14T13:34:06.620Z,19.92
2023-04-14T13:39:00.066Z,17.98
2023-04-14T13:41:26.858Z,15.05
2023-04-14T13:43:53.594Z,19.48
2023-04-14T13:46:20.347Z,15.40
2023-04-14T13:48:47.614Z,17.30
2023-04-14T13:51:14.414Z,21.67
2023-04-14T13:53:41.056Z,17.92
2023-04-14T13:56:07.772Z,18.90
2023-04-14T13:58:34.537Z,16.73
2023-04-14T14:01:12.019Z,16.77
2023-04-14T14:03:41.218Z,24.58
2023-04-14T14:06:08.123Z,22.58
2023-04-14T14:08:38.164Z,25.95
2023-04-14T14:11:06.396Z,18.30
2023-04-14T14:13:34.618Z,27.10
2023-04-14T14:16:01.662Z,26.30
2023-04-14T14:18:28.387Z,25.65
2023-04-14T14:20:55.317Z,20.15
2023-04-14T14:23:22.059Z,15.20
2023-04-14T14:25:48.787Z,20.77
2023-04-14T14:28:15.975Z,20.73
2023-04-14T14:30:45.904Z,19.23
2023-04-14T14:33:12.661Z,27.27
2023-04-14T14:35:39.567Z,20.58
2023-04-14T14:38:06.396Z,20.50
2023-04-14T14:40:33.118Z,17.95
2023-04-14T14:43:00.318Z,25.00
2023-04-14T14:45:30.573Z,34.15
2023-04-14T14:47:58.086Z,24.13
2023-04-14T14:50:25.978Z,22.40
2023-04-14T14:52:52.752Z,18.15
2023-04-14T14:55:19.563Z,21.02
2023-04-14T14:57:46.315Z,13.98
2023-04-14T15:00:13.551Z,15.23
2023-04-14T15:02:40.997Z,17.48
2023-04-14T15:05:09.452Z,21.98
2023-04-14T15:07:36.326Z,16.10
2023-04-14T15:10:04.673Z,23.10
2023-04-14T15:12:32.019Z,18.63
2023-04-14T15:14:58.885Z,18.27
2023-04-14T15:17:25.595Z,18.67
2023-04-14T15:19:52.807Z,19.88
2023-04-14T15:22:19.720Z,21.38
2023-04-14T15:24:46.415Z,25.17
2023-04-14T15:27:13.104Z,16.27
2023-04-14T15:29:39.909Z,19.98
2023-04-14T15:32:06.786Z,20.75
2023-04-14T15:34:33.462Z,15.90
2023-04-14T15:37:00.677Z,18.48
2023-04-14T15:39:28.744Z,15.93
2023-04-14T15:41:55.861Z,27.63
2023-04-14T15:44:22.714Z,28.90
2023-04-14T15:46:50.054Z,22.08
2023-04-14T15:49:16.699Z,29.10
2023-04-14T15:51:43.481Z,17.00
2023-04-14T15:54:10.873Z,27.52
2023-04-14T15:56:37.588Z,21.67
2023-04-14T15:59:04.282Z,16.42
2023-04-14T16:01:31.022Z,19.52
2023-04-14T16:03:57.864Z,23.77
2023-04-14T16:06:24.578Z,27.52
2023-04-14T16:08:51.426Z,21.83
2023-04-14T16:11:19.749Z,22.13
2023-04-14T16:13:46.566Z,27.70
2023-04-14T16:16:14.981Z,28.90
2023-04-14T16:18:42.429Z,26.42
2023-04-14T16:21:09.144Z,27.67
2023-04-14T16:23:35.824Z,52.95
2023-04-14T16:26:02.469Z,42.65
2023-04-14T16:28:29.163Z,35.75
2023-04-14T16:30:59.432Z,41.72
2023-04-14T16:33:26.431Z,57.60
2023-04-14T16:35:53.876Z,27.10
2023-04-14T16:38:20.585Z,24.17
2023-04-14T16:40:57.364Z,28.15
2023-04-14T16:43:24.789Z,24.90
2023-04-14T16:45:54.317Z,24.83
2023-04-14T16:48:21.124Z,20.73
2023-04-14T16:50:47.769Z,20.85
2023-04-14T16:53:14.648Z,21.30
2023-04-14T16:55:41.583Z,22.02
2023-04-14T16:58:09.819Z,19.15
2023-04-14T17:00:37.079Z,18.73
2023-04-14T17:03:04.284Z,26.50
2023-04-14T17:05:31.336Z,16.38
2023-04-14T17:07:58.243Z,26.20
2023-04-14T17:10:26.341Z,28.60
2023-04-14T17:12:53.766Z,18.92
2023-04-14T17:15:20.496Z,30.33
2023-04-14T17:17:47.195Z,22.83
2023-04-14T17:20:15.456Z,21.10
2023-04-14T17:22:42.726Z,17.60
2023-04-14T17:25:10.792Z,18.90
2023-04-14T17:27:38.573Z,20.83
2023-04-14T17:30:07.389Z,20.08
2023-04-14T17:32:34.748Z,20.85
2023-04-14T17:35:01.614Z,20.98
2023-04-14T17:37:28.971Z,28.52
2023-04-14T17:39:56.660Z,26.33
2023-04-14T17:42:25.171Z,26.67
2023-04-14T17:44:52.229Z,34.15
2023-04-14T17:47:21.540Z,22.08
2023-04-14T17:49:50.077Z,25.48
2023-04-14T17:52:17.311Z,20.35
2023-04-14T17:54:44.884Z,17.02
2023-04-14T17:57:13.221Z,26.58
2023-04-14T17:59:41.698Z,30.33
2023-04-14T18:02:09.096Z,19.65
2023-04-14T18:04:36.418Z,23.20
2023-04-14T18:07:03.113Z,18.23
2023-04-14T18:09:29.859Z,23.15
2023-04-14T18:11:56.528Z,26.88
2023-04-14T18:14:23.166Z,22.17
2023-04-14T18:16:49.884Z,15.75
2023-04-14T18:19:16.553Z,16.05
2023-04-14T18:21:44.937Z,17.42
2023-04-14T18:26:42.455Z,25.33
2023-04-14T18:29:09.095Z,20.67
2023-04-14T18:31:35.987Z,26.10
2023-04-14T18:34:06.616Z,28.02
2023-04-14T18:36:33.535Z,25.58
2023-04-14T18:39:01.268Z,31.45
2023-04-14T18:41:28.219Z,20.98
2023-04-14T18:43:54.939Z,17.33
2023-04-14T18:46:21.905Z,29.02
2023-04-14T18:48:49.435Z,16.17
2023-04-14T18:51:16.663Z,18.38
2023-04-14T18:53:45.269Z,19.05
2023-04-14T18:56:12.691Z,22.23
2023-04-14T18:58:40.175Z,18.20
2023-04-14T19:01:07.353Z,20.70
2023-04-14T19:03:34.159Z,22.63
2023-04-14T19:06:01.714Z,21.33
2023-04-14T19:08:28.858Z,19.95
2023-04-14T19:10:55.625Z,22.77
2023-04-14T19:13:22.517Z,25.48
2023-04-14T19:15:49.327Z,24.08
2023-04-14T19:18:17.329Z,21.85
2023-04-14T19:20:45.726Z,25.60
2023-04-14T19:23:12.387Z,22.08
2023-04-14T19:25:40.621Z,16.85
2023-04-14T19:28:07.994Z,29.05
2023-04-14T19:30:34.816Z,30.45
2023-04-14T19:33:02.062Z,23.13
2023-04-14T19:35:28.772Z,23.75
2023-04-14T19:37:57.088Z,17.95
2023-04-14T19:40:24.185Z,21.00
2023-04-14T19:42:50.933Z,26.58
2023-04-14T19:45:17.665Z,23.23
2023-04-14T19:47:44.366Z,22.00
2023-04-14T19:50:11.532Z,24.58
2023-04-14T19:52:38.658Z,21.95
2023-04-14T19:55:06.178Z,20.80
2023-04-14T19:57:33.289Z,24.60
2023-04-14T20:00:00.202Z,27.58
2023-04-14T20:02:28.433Z,25.42
2023-04-14T20:04:57.241Z,19.35
2023-04-14T20:07:23.875Z,30.73
2023-04-14T20:09:50.504Z,22.17
2023-04-14T20:12:17.369Z,23.95
2023-04-14T20:14:45.031Z,23.52
2023-04-14T20:17:12.553Z,46.53
2023-04-14T20:19:39.283Z,30.90
2023-04-14T20:22:06.516Z,28.45
2023-04-14T20:24:33.864Z,28.20
2023-04-14T20:27:00.797Z,19.35
2023-04-14T20:29:27.525Z,24.40
2023-04-14T20:31:54.163Z,38.92
2023-04-14T20:34:20.932Z,31.13
2023-04-14T20:36:47.580Z,28.80
2023-04-14T20:39:14.259Z,32.88
2023-04-14T20:41:41.250Z,26.67
2023-04-14T20:44:08.238Z,23.52
2023-04-14T20:46:35.085Z,27.10
2023-04-14T20:49:02.940Z,29.17
2023-04-14T20:51:30.242Z,23.33
2023-04-14T20:53:57.101Z,25.70
2023-04-14T20:56:27.243Z,23.20
2023-04-14T20:58:54.110Z,30.83
2023-04-14T21:01:21.317Z,26.35
2023-04-14T21:03:48.207Z,25.13
2023-04-14T21:06:14.998Z,24.85
2023-04-14T21:08:41.620Z,24.60
2023-04-14T21:11:16.769Z,24.63
2023-04-14T21:15:29.029Z,16.65
2023-04-14T21:16:32.875Z,19.90
2023-04-14T21:18:59.532Z,19.55
2023-04-14T21:21:27.078Z,18.73
2023-04-14T21:23:53.771Z,16.88
2023-04-14T21:26:20.506Z,19.33
2023-04-14T21:28:47.128Z,19.40
2023-04-14T21:31:13.842Z,13.63
2023-04-14T21:33:41.974Z,17.98
2023-04-14T21:36:11.901Z,15.13
2023-04-14T21:38:39.316Z,20.00
2023-04-14T21:41:07.918Z,14.73
2023-04-14T21:43:34.920Z,17.95
2023-04-14T21:46:01.624Z,22.63
2023-04-14T21:48:28.310Z,30.67
2023-04-14T21:50:54.979Z,23.23
2023-04-14T21:53:22.230Z,15.75
2023-04-14T21:56:09.174Z,18.08
2023-04-14T21:58:36.203Z,20.05
2023-04-14T22:01:03.097Z,14.80
2023-04-14T22:03:29.946Z,13.63
2023-04-14T22:05:56.673Z,23.48
2023-04-14T22:08:24.096Z,21.60
2023-04-14T22:10:50.806Z,15.05
2023-04-14T22:13:17.869Z,19.80
2023-04-14T22:15:44.855Z,22.08
2023-04-14T22:18:11.639Z,18.50
2023-04-14T22:20:39.336Z,11.63
2023-04-14T22:23:06.120Z,22.27
2023-04-14T22:25:33.244Z,22.23
2023-04-14T22:27:59.911Z,19.88
2023-04-14T22:30:26.583Z,27.02
2023-04-14T22:32:53.347Z,19.55
2023-04-14T22:35:20.238Z,15.45
2023-04-14T22:37:46.974Z,13.20
2023-04-14T22:40:13.815Z,17.10
2023-04-14T22:42:40.692Z,15.43
2023-04-14T22:45:08.184Z,18.88
2023-04-14T22:47:34.947Z,17.25
2023-04-14T22:50:02.129Z,18.98
2023-04-14T22:52:28.864Z,15.88
2023-04-14T22:54:55.550Z,18.17
2023-04-14T22:57:22.646Z,18.60
2023-04-14T22:59:49.311Z,16.42
2023-04-14T23:02:16.695Z,18.40
2023-04-14T23:04:43.539Z,14.00
2023-04-14T23:07:10.596Z,20.73
2023-04-14T23:09:37.248Z,26.85
2023-04-14T23:12:04.579Z,15.00
2023-04-14T23:14:32.397Z,13.10
2023-04-14T23:17:01.855Z,15.30
2023-04-14T23:19:28.578Z,17.27
2023-04-14T23:21:55.246Z,17.77
2023-04-14T23:24:22.485Z,15.57
2023-04-14T23:26:49.120Z,21.08
2023-04-14T23:29:15.768Z,16.67
2023-04-14T23:31:42.400Z,15.32
2023-04-14T23:34:10.936Z,17.58
2023-04-14T23:36:37.793Z,17.88
2023-04-14T23:39:04.858Z,18.30
2023-04-14T23:41:31.696Z,17.30
2023-04-14T23:43:58.585Z,18.98
2023-04-14T23:46:25.383Z,17.60
2023-04-14T23:48:53.438Z,15.60
2023-04-14T23:51:21.837Z,17.42
2023-04-14T23:53:49.842Z,14.50
2023-04-14T23:56:16.561Z,18.27
2023-04-14T23:58:43.338Z,20.67
